Time;durP1;ratioP1;P1;durP2;ratioP2;P2;SDS_P1;SDS_P2;PMS_P1;PMS_P2;Temp;Humidity;BMP_temperature;BMP_pressure;BME280_temperature;BME280_humidity;BME280_pressure;Samples;Min_cycle;Max_cycle;Signal;HPM_P1;HPM_P2
2021/01/16 00:00:26;;;;;;;49.90;24.10;;;;;;;-2.61;93.02;97322.41;4926989;29;20428;-82
2021/01/16 00:02:52;;;;;;;53.10;24.75;;;;;;;-2.55;93.57;97319.72;4934007;29;20027;-83
2021/01/16 00:05:20;;;;;;;54.50;25.05;;;;;;;-2.61;93.75;97307.56;4917665;29;20034;-83
2021/01/16 00:07:46;;;;;;;59.20;27.92;;;;;;;-2.48;93.85;97321.34;4918128;29;20537;-83
2021/01/16 00:10:14;;;;;;;55.90;25.77;;;;;;;-2.47;93.70;97326.59;4917837;29;20059;-83
2021/01/16 00:12:41;;;;;;;54.67;24.30;;;;;;;-2.41;94.74;97329.13;4906169;29;20039;-83
2021/01/16 00:15:08;;;;;;;62.90;25.95;;;;;;;-2.37;93.92;97328.16;4908375;29;20032;-83
2021/01/16 00:17:33;;;;;;;70.30;27.05;;;;;;;-2.32;93.25;97325.47;4911856;29;20031;-83
2021/01/16 00:19:59;;;;;;;48.25;21.75;;;;;;;-2.58;91.63;97291.00;4933670;29;20035;-82
2021/01/16 00:22:25;;;;;;;51.15;22.48;;;;;;;-2.55;91.44;97301.41;4918048;29;20035;-83
2021/01/16 00:24:51;;;;;;;52.92;23.02;;;;;;;-2.44;90.84;97304.72;4918947;29;20119;-81
2021/01/16 00:27:17;;;;;;;47.65;20.70;;;;;;;-2.45;89.85;97297.75;4908814;29;20031;-82
2021/01/16 00:29:42;;;;;;;42.63;18.13;;;;;;;-2.42;89.86;97318.66;4933169;29;20031;-82
2021/01/16 00:32:08;;;;;;;41.83;17.83;;;;;;;-2.44;90.54;97315.19;4928356;29;20028;-81
2021/01/16 00:34:37;;;;;;;43.90;18.95;;;;;;;-2.49;90.46;97303.94;4918510;29;20043;-82
2021/01/16 00:37:02;;;;;;;48.70;20.73;;;;;;;-2.41;92.22;97320.38;4917266;29;20059;-81
2021/01/16 00:39:28;;;;;;;56.63;23.58;;;;;;;-2.52;91.45;97290.91;4933078;29;20130;-81
2021/01/16 00:41:56;;;;;;;41.88;18.08;;;;;;;-2.39;90.63;97305.50;4925970;29;20028;-81
2021/01/16 00:44:22;;;;;;;38.15;17.17;;;;;;;-2.53;91.15;97283.91;4920764;29;20044;-81
2021/01/16 00:46:48;;;;;;;42.00;18.10;;;;;;;-2.48;91.28;97298.66;4921006;29;20036;-81
2021/01/16 00:49:13;;;;;;;44.42;20.73;;;;;;;-2.55;91.86;97301.41;4916938;29;20489;-81
2021/01/16 00:51:41;;;;;;;42.35;19.08;;;;;;;-2.62;92.75;97294.53;4913431;29;20020;-80
2021/01/16 00:54:07;;;;;;;47.17;21.00;;;;;;;-2.62;93.37;97299.75;4917210;29;20518;-81
2021/01/16 00:56:33;;;;;;;45.17;20.40;;;;;;;-2.57;93.72;97298.81;4932888;29;20028;-81
2021/01/16 00:58:59;;;;;;;39.35;19.75;;;;;;;-2.76;93.77;97273.78;4932824;29;20095;-81
2021/01/16 01:01:24;;;;;;;38.97;20.10;;;;;;;-2.67;94.28;97301.56;4921028;29;20120;-81
2021/01/16 01:03:50;;;;;;;48.55;20.58;;;;;;;-2.77;94.69;97285.16;4917159;29;20047;-81
2021/01/16 01:06:15;;;;;;;42.20;20.27;;;;;;;-2.83;94.70;97288.69;4916853;29;20043;-82
2021/01/16 01:08:41;;;;;;;43.97;19.52;;;;;;;-2.99;94.97;97274.13;4917298;29;20045;-81
2021/01/16 01:11:07;;;;;;;40.80;19.60;;;;;;;-3.02;95.41;97284.63;4905280;29;20028;-82
2021/01/16 01:13:33;;;;;;;41.05;18.83;;;;;;;-2.89;95.87;97296.63;4921104;29;20488;-82
2021/01/16 01:15:58;;;;;;;42.72;19.05;;;;;;;-2.93;96.10;97301.94;4924611;29;20083;-82
2021/01/16 01:18:24;;;;;;;42.08;18.52;;;;;;;-2.86;96.56;97299.19;4916708;29;20095;-82
2021/01/16 01:20:50;;;;;;;42.72;19.13;;;;;;;-3.12;96.13;97256.84;4916730;29;20028;-81
2021/01/16 01:23:15;;;;;;;39.03;18.40;;;;;;;-2.97;96.00;97271.47;4928235;29;20052;-81
2021/01/16 01:25:41;;;;;;;42.10;20.20;;;;;;;-2.97;95.66;97269.72;4924759;29;20455;-81
2021/01/16 01:28:07;;;;;;;44.05;20.30;;;;;;;-2.85;95.40;97276.53;4920607;29;20094;-80
2021/01/16 01:30:32;;;;;;;48.65;22.15;;;;;;;-2.82;95.20;97272.13;4905950;29;20039;-81
2021/01/16 01:33:00;;;;;;;55.55;24.10;;;;;;;-3.04;95.55;97254.13;4953433;28;20039;-81
2021/01/16 01:35:27;;;;;;;52.47;24.27;;;;;;;-2.89;94.43;97275.69;4904389;29;20044;-81
2021/01/16 01:37:55;;;;;;;57.13;25.02;;;;;;;-2.99;94.73;97261.03;4928300;29;20115;-82
2021/01/16 01:40:22;;;;;;;58.17;25.70;;;;;;;-2.99;94.93;97260.16;4907475;29;20036;-82
2021/01/16 01:42:52;;;;;;;54.20;24.10;;;;;;;-3.02;95.20;97255.84;4944881;29;20416;-83
2021/01/16 01:45:19;;;;;;;63.58;25.23;;;;;;;-3.05;95.75;97270.72;4924701;29;20518;-81
2021/01/16 01:47:46;;;;;;;52.28;23.50;;;;;;;-2.94;96.37;97287.97;4931601;29;20126;-80
2021/01/16 01:50:13;;;;;;;49.35;22.70;;;;;;;-2.86;95.95;97286.13;4907964;29;20031;-80
2021/01/16 01:52:40;;;;;;;54.33;22.58;;;;;;;-2.84;95.93;97284.38;4908994;29;20040;-80
2021/01/16 01:55:07;;;;;;;48.38;23.60;;;;;;;-2.75;96.21;97285.97;4912439;29;20031;-80
2021/01/16 01:57:35;;;;;;;50.25;23.17;;;;;;;-2.79;96.45;97287.78;4941837;29;20032;-80
2021/01/16 02:00:07;;;;;;;56.30;24.33;;;;;;;-2.85;96.18;97273.91;4910449;29;20096;-80
2021/01/16 02:02:36;;;;;;;49.03;23.55;;;;;;;-2.89;96.70;97275.69;4924396;29;20024;-80
2021/01/16 02:05:07;;;;;;;60.00;27.38;;;;;;;-2.78;96.59;97279.03;4924190;29;20028;-79
2021/01/16 02:07:39;;;;;;;66.50;27.55;;;;;;;-2.64;96.02;97283.19;4941395;29;20051;-80
2021/01/16 02:10:19;;;;;;;54.20;23.88;;;;;;;-2.61;96.19;97270.94;4920507;29;20032;-80
2021/01/16 02:12:45;;;;;;;52.47;23.63;;;;;;;-2.48;95.27;97280.34;4927909;29;20511;-80
2021/01/16 02:15:33;;;;;;;42.38;20.20;;;;;;;-2.57;94.64;97271.75;4935897;29;20040;-80
2021/01/16 02:18:10;;;;;;;47.13;21.98;;;;;;;-2.58;93.86;97256.97;4940797;29;20480;-81
2021/01/16 02:20:37;;;;;;;39.83;18.55;;;;;;;-2.54;92.61;97253.38;4927141;29;20130;-80
2021/01/16 02:23:12;;;;;;;35.88;18.17;;;;;;;-2.41;92.05;97273.25;4935003;29;20020;-80
2021/01/16 02:25:49;;;;;;;35.35;17.58;;;;;;;-2.49;91.79;97256.81;4932902;29;20122;-80
2021/01/16 02:28:21;;;;;;;39.50;17.73;;;;;;;-2.52;92.21;97264.72;4943470;29;20035;-80
2021/01/16 02:30:46;;;;;;;37.97;17.40;;;;;;;-2.53;92.49;97257.75;4935587;29;20428;-80
2021/01/16 02:33:15;;;;;;;39.95;18.73;;;;;;;-2.72;93.44;97251.91;4929657;29;20040;-80
2021/01/16 02:36:03;;;;;;;45.25;18.40;;;;;;;-2.58;93.92;97257.78;4926428;29;20032;-79
2021/01/16 02:38:50;;;;;;;41.58;19.55;;;;;;;-2.48;93.29;97261.16;4926656;29;20036;-81
2021/01/16 02:41:36;;;;;;;54.30;21.60;;;;;;;-2.46;93.99;97260.22;4928589;29;20031;-81
2021/01/16 02:44:26;;;;;;;51.13;22.60;;;;;;;-2.65;94.02;97237.88;4960274;28;20432;-81
2021/01/16 02:46:57;;;;;;;55.95;24.08;;;;;;;-2.51;93.16;97240.25;4933722;29;20070;-80
2021/01/16 02:49:29;;;;;;;46.67;21.65;;;;;;;-2.33;92.09;97259.16;4923606;29;20096;-80
2021/01/16 02:52:07;;;;;;;47.83;21.93;;;;;;;-2.32;92.03;97254.78;4947464;29;20138;-81
2021/01/16 02:54:38;;;;;;;50.00;22.42;;;;;;;-2.34;92.43;97256.56;4934167;29;20272;-80
2021/01/16 02:57:13;;;;;;;57.83;25.05;;;;;;;-2.45;92.77;97255.84;4926470;29;20492;-80
2021/01/16 02:59:43;;;;;;;68.28;29.13;;;;;;;-2.43;93.26;97243.63;4938765;29;20036;-80
2021/01/16 03:02:11;;;;;;;69.25;29.27;;;;;;;-2.33;92.58;97260.91;4942790;29;20031;-80
2021/01/16 03:04:37;;;;;;;69.35;28.80;;;;;;;-2.35;92.59;97252.22;4923430;29;20110;-80
2021/01/16 03:07:05;;;;;;;68.68;28.77;;;;;;;-2.27;92.17;97260.78;4926270;29;20465;-80
2021/01/16 03:09:31;;;;;;;60.55;26.77;;;;;;;-2.20;92.47;97267.66;4938432;29;20098;-82
2021/01/16 03:11:57;;;;;;;59.70;24.30;;;;;;;-2.22;92.99;97259.00;4914226;29;20066;-80
2021/01/16 03:14:28;;;;;;;53.55;23.67;;;;;;;-2.32;92.64;97262.63;4908102;29;20503;-80
2021/01/16 03:17:15;;;;;;;53.67;24.75;;;;;;;-2.30;92.83;97266.94;4942588;29;20028;-80
2021/01/16 03:19:48;;;;;;;55.80;22.88;;;;;;;-2.33;93.03;97266.13;4910807;29;20912;-81
2021/01/16 03:22:22;;;;;;;49.70;22.52;;;;;;;-2.50;93.50;97260.31;4942514;29;20087;-80
2021/01/16 03:24:49;;;;;;;61.47;27.20;;;;;;;-2.39;93.74;97266.22;4927800;29;20094;-81
2021/01/16 03:27:15;;;;;;;56.70;25.88;;;;;;;-2.41;94.10;97262.78;4909018;29;20035;-81
2021/01/16 03:29:41;;;;;;;58.55;25.25;;;;;;;-2.48;94.29;97255.91;4938824;29;20035;-81
2021/01/16 03:32:08;;;;;;;58.90;25.60;;;;;;;-2.49;93.65;97254.19;4919016;29;20118;-80
2021/01/16 03:34:35;;;;;;;58.85;25.20;;;;;;;-2.35;92.89;97260.06;4910076;29;20067;-81
2021/01/16 03:37:00;;;;;;;58.08;26.48;;;;;;;-2.45;93.66;97255.84;4949554;29;20432;-80
2021/01/16 03:39:26;;;;;;;57.13;25.73;;;;;;;-2.34;93.50;97249.56;4945783;29;20099;-81
2021/01/16 03:41:52;;;;;;;60.83;26.42;;;;;;;-2.40;93.07;97243.56;4918172;29;20032;-81
2021/01/16 03:44:18;;;;;;;57.08;23.70;;;;;;;-2.33;93.31;97260.91;4917679;29;20032;-80
2021/01/16 03:46:43;;;;;;;55.63;26.63;;;;;;;-2.30;93.51;97256.47;4905803;29;20040;-81
2021/01/16 03:49:12;;;;;;;54.55;24.17;;;;;;;-2.23;93.19;97244.16;4922041;29;20112;-81
2021/01/16 03:51:38;;;;;;;50.17;23.10;;;;;;;-2.28;92.29;97246.00;4953583;28;20034;-81
2021/01/16 03:54:04;;;;;;;53.30;23.38;;;;;;;-2.33;92.13;97229.47;4945844;29;20039;-81
2021/01/16 03:56:29;;;;;;;45.95;21.10;;;;;;;-2.22;92.02;97248.50;4921632;29;20416;-80
2021/01/16 03:58:55;;;;;;;44.45;21.70;;;;;;;-2.30;90.78;97237.28;4905530;29;20087;-81
2021/01/16 04:01:22;;;;;;;46.22;21.63;;;;;;;-2.32;90.49;97237.31;4917484;29;20091;-81
2021/01/16 04:03:51;;;;;;;45.75;20.60;;;;;;;-2.25;90.50;97248.56;4917522;29;20042;-80
2021/01/16 04:06:18;;;;;;;53.38;23.02;;;;;;;-2.29;89.79;97229.41;4925156;29;20086;-81
2021/01/16 04:08:44;;;;;;;54.15;23.98;;;;;;;-2.18;90.22;97234.44;4909443;29;20028;-80
2021/01/16 04:11:10;;;;;;;54.38;27.05;;;;;;;-2.41;91.88;97197.34;4920901;29;20408;-81
2021/01/16 04:13:37;;;;;;;59.90;26.63;;;;;;;-2.18;91.87;97233.63;4921286;29;20113;-81
2021/01/16 04:16:09;;;;;;;61.30;25.23;;;;;;;-2.11;90.95;97233.47;4909356;29;20415;-81
2021/01/16 04:18:35;;;;;;;57.05;26.75;;;;;;;-2.12;90.60;97234.34;4901967;29;20039;-81
2021/01/16 04:21:02;;;;;;;68.10;29.58;;;;;;;-2.09;90.24;97239.53;4909600;29;20492;-80
2021/01/16 04:23:28;;;;;;;56.15;25.75;;;;;;;-2.25;91.12;97227.63;4904236;29;20048;-81
2021/01/16 04:25:54;;;;;;;51.95;23.90;;;;;;;-2.27;92.69;97229.38;4910457;29;20068;-80
2021/01/16 04:28:20;;;;;;;52.13;24.25;;;;;;;-2.18;92.15;97250.16;4929199;29;20040;-81
2021/01/16 04:30:46;;;;;;;49.95;23.65;;;;;;;-2.32;92.83;97237.31;4921877;29;20032;-80
2021/01/16 04:33:13;;;;;;;54.70;23.85;;;;;;;-2.23;93.16;97236.28;4910141;29;20047;-81
2021/01/16 04:35:39;;;;;;;48.38;22.45;;;;;;;-2.29;93.28;97237.28;4928067;29;20111;-81
2021/01/16 04:38:05;;;;;;;56.63;25.00;;;;;;;-2.42;93.58;97219.16;4906282;29;20035;-81
2021/01/16 04:40:30;;;;;;;55.22;25.63;;;;;;;-2.23;93.74;97246.78;4933048;29;20042;-81
2021/01/16 04:42:56;;;;;;;62.58;29.38;;;;;;;-2.21;94.26;97253.72;4908857;29;20058;-81
2021/01/16 04:45:23;;;;;;;66.68;29.50;;;;;;;-2.27;94.36;97255.56;4937543;29;20114;-80
2021/01/16 04:47:50;;;;;;;70.30;31.35;;;;;;;-2.28;95.65;97253.84;4928386;29;20036;-80
2021/01/16 04:50:17;;;;;;;92.32;40.42;;;;;;;-2.34;95.21;97253.94;4916471;29;20482;-80
2021/01/16 04:52:44;;;;;;;82.30;37.10;;;;;;;-2.36;95.79;97248.72;4916742;29;20055;-80
2021/01/16 04:55:14;;;;;;;88.15;34.17;;;;;;;-2.20;95.84;97257.19;4916845;29;20031;-81
2021/01/16 04:57:41;;;;;;;71.05;31.55;;;;;;;-2.34;94.80;97239.06;4912915;29;20028;-81
2021/01/16 05:00:12;;;;;;;75.00;31.48;;;;;;;-2.30;94.75;97250.38;4907690;29;20115;-80
2021/01/16 05:02:40;;;;;;;61.90;29.23;;;;;;;-2.22;94.60;97254.63;4915069;29;20027;-81
2021/01/16 05:05:21;;;;;;;68.32;28.77;;;;;;;-2.17;94.29;97270.25;4932637;29;20032;-80
2021/01/16 05:07:47;;;;;;;63.10;29.45;;;;;;;-2.32;94.29;97233.84;4916635;29;20031;-81
2021/01/16 05:10:16;;;;;;;72.03;33.90;;;;;;;-2.21;94.36;97251.09;4918458;29;20042;-81
2021/01/16 05:12:58;;;;;;;68.60;31.52;;;;;;;-2.14;93.30;97245.75;4932778;29;20031;-80
2021/01/16 05:15:26;;;;;;;;;;;;;;;-2.01;91.79;97256.00;4910354;29;20071;-81
2021/01/16 05:18:08;;;;;;;72.30;29.27;;;;;;;-2.01;92.48;97263.84;4941059;29;20596;-81
2021/01/16 05:20:35;;;;;;;59.83;27.55;;;;;;;-2.07;92.70;97250.00;4941476;29;20039;-81
2021/01/16 05:23:17;;;;;;;68.70;28.77;;;;;;;-2.01;93.71;97261.22;4925135;29;20115;-81
2021/01/16 05:25:46;;;;;;;61.58;27.40;;;;;;;-2.05;93.81;97256.06;4910461;29;20032;-81
2021/01/16 05:28:14;;;;;;;62.63;27.33;;;;;;;-2.11;92.75;97237.84;4927125;29;20035;-80
2021/01/16 05:31:03;;;;;;;64.20;28.13;;;;;;;-1.96;92.60;97256.78;4933526;29;20027;-81
2021/01/16 05:33:31;;;;;;;66.45;29.52;;;;;;;-2.26;92.88;97233.72;4928128;29;20039;-81
2021/01/16 05:36:00;;;;;;;65.95;29.50;;;;;;;-2.16;93.70;97248.41;4944068;29;20023;-80
2021/01/16 05:38:40;;;;;;;72.25;31.63;;;;;;;-2.24;93.64;97234.56;4932028;29;20034;-80
2021/01/16 05:41:13;;;;;;;64.68;28.80;;;;;;;-2.25;94.05;97227.63;4920085;29;20079;-80
2021/01/16 05:43:41;;;;;;;58.45;27.67;;;;;;;-2.15;93.70;97238.78;4947998;29;20034;-80
2021/01/16 05:46:16;;;;;;;60.70;25.77;;;;;;;-2.15;92.39;97228.31;4912578;29;20509;-77
2021/01/16 05:48:42;;;;;;;57.70;26.05;;;;;;;-2.10;93.03;97252.66;4903067;29;20021;-78
2021/01/16 05:51:07;;;;;;;80.40;33.90;;;;;;;-2.12;93.97;97249.22;4922153;28;20070;-84
2021/01/16 05:53:35;;;;;;;61.30;26.55;;;;;;;-2.10;94.29;97250.03;4912932;29;20031;-84
2021/01/16 05:56:01;;;;;;;57.38;26.25;;;;;;;-2.13;94.58;97237.88;4920798;29;20107;-84
2021/01/16 05:58:32;;;;;;;56.13;26.05;;;;;;;-2.24;93.79;97245.03;4925258;29;20023;-82
2021/01/16 06:00:58;;;;;;;61.03;26.30;;;;;;;-2.37;94.45;97222.59;4925127;29;20062;-86
2021/01/16 06:03:24;;;;;;;70.82;32.50;;;;;;;-2.20;94.27;97244.09;4921032;29;20056;-84
2021/01/16 06:05:51;;;;;;;63.83;27.25;;;;;;;-2.25;93.65;97219.75;4912107;29;20510;-83
2021/01/16 06:08:18;;;;;;;53.45;24.55;;;;;;;-2.23;92.52;97238.91;4941438;29;20440;-83
2021/01/16 06:10:50;;;;;;;63.28;28.75;;;;;;;-2.29;91.80;97204.97;4920178;29;20074;-85
2021/01/16 06:13:35;;;;;;;105.63;39.35;;;;;;;-2.05;92.18;97242.97;4921742;29;20575;-83
2021/01/16 06:16:03;;;;;;;70.55;30.50;;;;;;;-2.10;91.36;97242.19;4920256;29;20032;-83
2021/01/16 06:18:37;;;;;;;54.05;27.13;;;;;;;-2.00;90.91;97249.84;4918931;29;20035;-83
2021/01/16 06:21:03;;;;;;;72.30;32.97;;;;;;;-2.17;91.52;97236.19;4931949;29;20052;-82
2021/01/16 06:23:30;;;;;;;74.30;32.65;;;;;;;-1.95;91.85;97263.75;4924777;29;20051;-83
2021/01/16 06:25:57;;;;;;;68.63;31.92;;;;;;;-2.17;91.36;97236.19;4918920;29;20106;-84
2021/01/16 06:28:30;;;;;;;79.85;35.65;;;;;;;-1.99;91.87;97245.47;4912393;29;20084;-83
2021/01/16 06:30:57;;;;;;;105.72;43.92;;;;;;;-2.00;90.69;97239.38;4902155;29;20031;-83
2021/01/16 06:33:28;;;;;;;103.80;43.60;;;;;;;-2.00;90.11;97238.53;4901994;29;20032;-82
2021/01/16 06:36:13;;;;;;;110.03;47.63;;;;;;;-2.10;90.23;97222.09;4916808;29;20075;-83
2021/01/16 06:45:24;;;;;;;91.45;41.13;;;;;;;-1.92;89.42;97229.63;4898110;29;20059;-83
2021/01/16 06:48:00;;;;;;;93.65;42.83;;;;;;;-1.96;89.67;97235.81;4931414;29;20103;-81
2021/01/16 06:50:27;;;;;;;97.05;42.72;;;;;;;-1.66;90.27;97265.81;4901326;29;20028;-83
2021/01/16 06:52:53;;;;;;;90.97;41.40;;;;;;;-1.83;90.82;97225.97;4916217;29;20504;-82
2021/01/16 06:55:20;;;;;;;106.45;46.20;;;;;;;-1.77;90.48;97228.47;4923561;29;20114;-83
2021/01/16 06:58:04;;;;;;;103.40;44.97;;;;;;;-1.53;89.59;97255.97;4904917;29;20059;-85
2021/01/16 07:00:30;;;;;;;108.45;45.97;;;;;;;-1.57;88.91;97241.22;4914277;29;20038;-82
2021/01/16 07:02:56;;;;;;;100.05;44.85;;;;;;;-1.58;89.02;97249.97;4919539;29;20031;-82
2021/01/16 07:05:22;;;;;;;105.53;48.17;;;;;;;-1.34;89.21;97273.06;4920195;29;20043;-85
2021/01/16 07:07:52;;;;;;;116.53;46.33;;;;;;;-1.44;89.57;97266.28;4919129;29;20095;-82
2021/01/16 07:10:22;;;;;;;108.47;46.15;;;;;;;-1.48;89.62;97277.75;4919246;29;20039;-85
2021/01/16 07:12:59;;;;;;;116.70;47.35;;;;;;;-1.47;90.28;97282.94;4911448;29;20032;-82
2021/01/16 07:15:29;;;;;;;97.40;41.90;;;;;;;-1.43;90.37;97278.50;4924968;29;20078;-84
2021/01/16 07:17:55;;;;;;;97.07;42.50;;;;;;;-1.43;90.71;97279.38;4951604;28;20099;-85
2021/01/16 07:20:23;;;;;;;92.43;41.50;;;;;;;-1.49;90.42;97287.34;4922190;29;20547;-82
2021/01/16 07:22:52;;;;;;;93.78;39.67;;;;;;;-1.52;90.00;97268.19;4915606;29;20042;-84
2021/01/16 07:25:56;;;;;;;83.55;39.63;;;;;;;-1.62;91.22;97264.88;4933691;29;20035;-85
2021/01/16 07:28:24;;;;;;;94.20;41.20;;;;;;;-1.59;91.47;97256.09;4914117;29;20134;-83
2021/01/16 07:30:56;;;;;;;103.85;44.83;;;;;;;-1.49;90.98;97257.66;4918823;29;20031;-85
2021/01/16 07:33:27;;;;;;;89.60;39.00;;;;;;;-1.15;89.37;97279.69;4958148;28;20379;-81
2021/01/16 07:35:54;;;;;;;84.82;40.10;;;;;;;-1.26;88.22;97261.53;4959697;28;20036;-81
2021/01/16 07:38:24;;;;;;;94.95;42.13;;;;;;;-1.16;88.22;97270.94;4928261;29;20119;-82
2021/01/16 07:40:55;;;;;;;99.38;46.85;;;;;;;-0.92;87.83;97290.56;4927499;29;20031;-80
2021/01/16 07:44:04;;;;;;;99.20;47.38;;;;;;;-0.92;88.55;97277.44;4924911;29;20031;-81
2021/01/16 07:46:31;;;;;;;89.10;41.08;;;;;;;-1.18;88.90;97274.50;4905503;29;20103;-82
2021/01/16 07:49:01;;;;;;;316.60;124.35;;;;;;;-1.08;89.83;97293.56;4918392;29;20027;-81
2021/01/16 07:51:30;;;;;;;116.47;51.22;;;;;;;-1.00;89.43;97268.88;4910932;29;20039;-82
2021/01/16 07:54:00;;;;;;;90.93;39.85;;;;;;;-1.01;88.10;97267.13;4918960;29;20028;-82
2021/01/16 07:56:36;;;;;;;78.93;39.63;;;;;;;-0.74;88.27;97278.81;4937470;29;20043;-81
2021/01/16 07:59:07;;;;;;;111.13;52.88;;;;;;;-0.76;87.64;97284.09;4923456;29;21025;-81
2021/01/16 08:01:46;;;;;;;96.60;44.28;;;;;;;-0.83;87.81;97300.03;4915648;29;20032;-81
2021/01/16 08:04:25;;;;;;;98.07;45.38;;;;;;;-0.82;87.37;97278.09;4915333;29;20040;-81
2021/01/16 08:07:04;;;;;;;114.32;52.35;;;;;;;-0.68;86.91;97279.53;4921926;29;20047;-81
2021/01/16 08:09:48;;;;;;;107.22;47.92;;;;;;;-0.59;86.71;97292.47;4922543;29;20044;-81
2021/01/16 08:12:16;;;;;;;102.60;48.13;;;;;;;-0.59;86.03;97283.72;4920945;29;20115;-81
2021/01/16 08:14:44;;;;;;;141.00;63.58;;;;;;;-0.53;86.00;97285.34;4915103;29;20040;-79
2021/01/16 08:17:16;;;;;;;130.38;58.28;;;;;;;-0.57;86.71;97295.91;4923730;29;20028;-81
2021/01/16 08:20:00;;;;;;;107.18;50.17;;;;;;;-0.47;85.89;97283.44;4903977;29;20027;-82
2021/01/16 08:22:38;;;;;;;106.45;51.00;;;;;;;-0.52;85.61;97281.84;4928411;29;20050;-81
2021/01/16 08:25:08;;;;;;;121.88;52.92;;;;;;;-0.69;85.72;97269.94;4924351;29;20075;-80
2021/01/16 08:27:43;;;;;;;140.55;65.60;;;;;;;-0.61;85.90;97294.25;4916557;29;20036;-81
2021/01/16 08:30:16;;;;;;;314.27;143.32;;;;;;;-0.49;85.39;97289.66;4921362;29;20496;-81
2021/01/16 08:32:53;;;;;;;199.75;93.45;;;;;;;-0.33;84.79;97294.50;4919722;29;20023;-81
2021/01/16 08:35:24;;;;;;;129.80;55.38;;;;;;;-0.35;83.38;97279.66;4944532;29;20038;-81
2021/01/16 08:37:50;;;;;;;122.57;58.15;;;;;;;-0.30;84.15;97277.78;4916773;29;20038;-81
2021/01/16 08:40:35;;;;;;;150.50;68.13;;;;;;;-0.12;83.78;97298.38;4932282;29;20036;-82
2021/01/16 08:43:00;;;;;;;148.52;61.80;;;;;;;0.05;81.84;97293.56;4911125;29;20063;-81
2021/01/16 08:45:26;;;;;;;150.88;65.05;;;;;;;0.30;81.19;97291.19;4909856;29;20055;-83
2021/01/16 08:47:54;;;;;;;142.55;64.70;;;;;;;0.41;80.66;97311.03;4920563;29;20032;-82
2021/01/16 08:50:21;;;;;;;132.95;60.78;;;;;;;0.41;78.99;97268.09;4915484;29;20043;-82
2021/01/16 08:52:47;;;;;;;147.60;63.03;;;;;;;0.52;79.21;97284.47;4919390;29;20039;-82
2021/01/16 08:55:13;;;;;;;123.13;55.40;;;;;;;0.37;78.89;97264.69;4924611;29;20416;-82
2021/01/16 08:57:39;;;;;;;140.00;64.32;;;;;;;0.62;78.33;97282.44;4918647;29;20036;-81
2021/01/16 09:00:25;;;;;;;143.77;65.15;;;;;;;0.50;78.77;97292.38;4937372;29;20040;-81
2021/01/16 09:03:21;;;;;;;139.27;62.67;;;;;;;0.72;77.19;97290.03;4935036;29;20024;-80
2021/01/16 09:05:48;;;;;;;148.73;68.93;;;;;;;0.89;76.20;97286.97;4929537;29;20116;-81
2021/01/16 09:08:24;;;;;;;136.57;61.95;;;;;;;0.92;75.81;97286.88;4927184;29;20040;-81
2021/01/16 09:10:51;;;;;;;130.65;61.55;;;;;;;0.93;75.41;97291.22;4902991;29;20042;-82
2021/01/16 09:13:30;;;;;;;140.80;64.55;;;;;;;0.76;76.80;97281.16;4920732;29;20032;-81
2021/01/16 09:15:59;;;;;;;143.00;62.20;;;;;;;0.75;75.63;97279.44;4933395;29;20067;-81
2021/01/16 09:18:28;;;;;;;106.32;52.17;;;;;;;1.08;74.03;97289.00;4915941;29;20110;-80
2021/01/16 09:20:54;;;;;;;89.45;41.67;;;;;;;1.00;73.10;97290.13;4904040;29;20039;-81
2021/01/16 09:23:20;;;;;;;80.00;38.08;;;;;;;0.96;72.38;97286.72;4931161;29;20055;-80
2021/01/16 09:25:55;;;;;;;90.47;44.28;;;;;;;0.72;75.44;97281.28;4924476;29;20032;-80
2021/01/16 09:28:49;;;;;;;75.10;34.55;;;;;;;0.67;75.50;97275.28;4950555;29;20179;-80
2021/01/16 09:31:17;;;;;;;69.00;32.33;;;;;;;0.54;74.64;97266.88;4929835;29;20028;-80
2021/01/16 09:34:00;;;;;;;80.95;37.42;;;;;;;0.70;75.02;97276.06;4908583;29;20040;-81
2021/01/16 09:36:55;;;;;;;78.25;35.25;;;;;;;0.81;75.36;97263.47;4926330;29;20397;-80
2021/01/16 09:39:29;;;;;;;70.00;32.25;;;;;;;0.80;73.24;97255.63;4925993;29;20034;-80
2021/01/16 09:41:56;;;;;;;43.78;21.30;;;;;;;0.93;69.72;97244.69;4915977;29;20044;-81
2021/01/16 09:44:37;;;;;;;50.25;22.25;;;;;;;1.22;68.05;97259.66;4929986;29;20544;-80
2021/01/16 09:47:03;;;;;;;50.28;25.25;;;;;;;1.38;68.01;97257.41;4925871;29;20032;-82
2021/01/16 09:49:45;;;;;;;47.10;21.50;;;;;;;1.56;65.07;97254.22;4915496;29;20040;-80
2021/01/16 09:52:11;;;;;;;45.17;20.30;;;;;;;1.82;64.15;97256.88;4934376;29;20182;-82
2021/01/16 09:54:36;;;;;;;26.08;13.32;;;;;;;1.50;62.06;97244.72;4923642;29;20115;-81
2021/01/16 09:57:02;;;;;;;36.75;16.90;;;;;;;1.66;62.92;97255.66;4928188;29;20095;-81
2021/01/16 09:59:28;;;;;;;50.78;20.48;;;;;;;1.43;60.78;97245.81;4928863;29;20028;-81
2021/01/16 10:02:14;;;;;;;35.00;15.90;;;;;;;1.65;60.08;97253.91;4925761;29;20031;-81
2021/01/16 10:04:41;;;;;;;18.63;9.40;;;;;;;1.58;57.98;97247.97;4932671;29;20032;-80
2021/01/16 10:07:12;;;;;;;19.75;10.55;;;;;;;1.46;58.08;97235.19;4940395;28;20038;-82
2021/01/16 10:09:42;;;;;;;18.67;10.90;;;;;;;1.56;56.82;97235.75;4915539;29;20505;-81
2021/01/16 10:12:08;;;;;;;23.52;13.00;;;;;;;1.23;55.86;97240.28;4924113;29;20381;-84
2021/01/16 10:14:38;;;;;;;71.18;27.70;;;;;;;1.17;58.57;97239.63;4917622;29;20040;-82
2021/01/16 10:17:11;;;;;;;36.78;17.42;;;;;;;1.15;58.48;97234.38;4916503;29;20051;-82
2021/01/16 10:19:38;;;;;;;23.63;10.93;;;;;;;1.19;56.07;97245.69;4918207;29;20024;-82
2021/01/16 10:22:03;;;;;;;18.33;8.95;;;;;;;1.01;56.03;97229.56;4910959;29;20483;-82
2021/01/16 10:24:29;;;;;;;18.40;9.00;;;;;;;0.79;57.80;97217.03;4918982;29;20056;-82
2021/01/16 10:26:56;;;;;;;16.02;8.65;;;;;;;0.76;60.10;97233.78;4915222;29;20036;-82
2021/01/16 10:29:37;;;;;;;24.05;11.32;;;;;;;0.76;63.35;97238.19;4907437;29;20028;-81
2021/01/16 10:32:23;;;;;;;21.00;10.05;;;;;;;0.39;64.30;97194.50;4957360;28;20094;-81
2021/01/16 10:34:50;;;;;;;11.02;6.28;;;;;;;0.37;63.15;97225.22;4909480;29;20127;-82
2021/01/16 10:37:17;;;;;;;12.07;6.68;;;;;;;0.31;64.45;97220.13;4931887;29;20039;-82
2021/01/16 10:39:48;;;;;;;25.40;11.15;;;;;;;0.03;62.53;97215.66;4914970;29;20028;-82
2021/01/16 10:42:16;;;;;;;81.70;38.53;;;;;;;0.27;61.52;97215.00;4902885;29;20099;-82
2021/01/16 10:44:45;;;;;;;26.83;13.60;;;;;;;0.39;59.87;97202.38;4953515;28;20067;-81
2021/01/16 10:47:32;;;;;;;47.60;24.65;;;;;;;0.24;59.46;97176.50;4922265;29;20067;-81
2021/01/16 10:50:05;;;;;;;23.08;11.73;;;;;;;0.46;60.89;97210.97;4916844;29;20032;-81
2021/01/16 10:52:31;;;;;;;31.75;14.48;;;;;;;0.32;62.61;97192.94;4917183;29;20028;-82
2021/01/16 10:55:07;;;;;;;37.15;15.90;;;;;;;0.28;64.11;97186.03;4943815;29;20035;-81
2021/01/16 10:57:42;;;;;;;31.88;15.02;;;;;;;0.17;64.20;97184.59;4936861;29;20027;-82
2021/01/16 11:00:12;;;;;;;17.38;8.80;;;;;;;-0.16;64.97;97191.63;4949866;29;20126;-80
2021/01/16 11:02:43;;;;;;;12.77;7.25;;;;;;;-0.43;65.60;97194.94;4949628;29;20082;-81
2021/01/16 11:05:32;;;;;;;23.23;11.15;;;;;;;-0.37;65.98;97189.53;4931813;29;20035;-82
2021/01/16 11:08:10;;;;;;;33.05;17.00;;;;;;;-0.39;68.28;97180.81;4899986;29;20040;-82
2021/01/16 11:10:36;;;;;;;33.42;15.38;;;;;;;-0.21;66.26;97190.84;4928087;29;20036;-82
2021/01/16 11:13:24;;;;;;;18.70;8.93;;;;;;;-0.41;64.79;97174.75;4917808;29;20087;-81
2021/01/16 11:15:52;;;;;;;42.47;19.88;;;;;;;-0.44;66.12;97178.31;4942816;28;20044;-81
2021/01/16 11:18:32;;;;;;;34.22;15.95;;;;;;;-0.32;67.32;97172.75;4919017;29;20032;-81
2021/01/16 11:21:22;;;;;;;65.35;32.45;;;;;;;-0.19;66.46;97181.19;4916918;29;20030;-81
2021/01/16 11:24:12;;;;;;;113.18;40.53;;;;;;;-0.12;66.35;97175.72;4916421;29;20044;-81
2021/01/16 11:26:46;;;;;;;63.25;22.70;;;;;;;-0.19;64.25;97181.19;4928185;29;20043;-81
2021/01/16 11:29:19;;;;;;;34.92;15.95;;;;;;;-0.21;64.94;97164.56;4930759;29;20039;-81
2021/01/16 11:31:52;;;;;;;167.48;44.08;;;;;;;-0.30;63.85;97164.81;4963048;28;20031;-81
2021/01/16 11:34:21;;;;;;;45.45;19.15;;;;;;;-0.29;64.18;97159.53;4922874;29;20107;-81
2021/01/16 11:36:57;;;;;;;327.58;110.38;;;;;;;-0.22;63.33;97166.38;4946367;29;20389;-81
2021/01/16 11:39:52;;;;;;;198.93;61.08;;;;;;;-0.11;61.58;97155.56;4921835;29;20068;-81